Time;durP1;ratioP1;P1;durP2;ratioP2;P2;SDS_P1;SDS_P2;PMS_P1;PMS_P2;Temp;Humidity;BMP_temperature;BMP_pressure;BME280_temperature;BME280_humidity;BME280_pressure;Samples;Min_cycle;Max_cycle;Signal;HPM_P1;HPM_P2
2022/10/17 00:00:19;;;;;;;5.57;2.10;;;;;;;13.23;100.00;97222.50;5081965;28;21321;-60
2022/10/17 00:02:45;;;;;;;5.60;2.07;;;;;;;13.17;100.00;97222.25;5082291;28;20201;-60
2022/10/17 00:05:12;;;;;;;1.97;1.70;;;;;;;13.13;100.00;97231.50;5082368;28;20294;-61
2022/10/17 00:07:38;;;;;;;5.20;2.00;;;;;;;13.09;100.00;97217.66;5081831;28;20297;-60
2022/10/17 00:10:08;;;;;;;3.57;2.10;;;;;;;13.06;100.00;97223.25;5087220;28;20189;-61
2022/10/17 00:12:35;;;;;;;4.40;1.83;;;;;;;13.01;100.00;97227.28;5101471;28;20261;-61
2022/10/17 00:15:04;;;;;;;2.83;2.00;;;;;;;13.01;100.00;97227.28;5103735;28;20181;-60
2022/10/17 00:17:33;;;;;;;4.13;2.00;;;;;;;13.01;100.00;97232.59;5102162;28;20205;-60
2022/10/17 00:19:59;;;;;;;2.30;1.57;;;;;;;13.04;100.00;97229.69;5095005;28;20246;-61
2022/10/17 00:22:26;;;;;;;3.03;1.80;;;;;;;13.02;100.00;97234.28;5093492;28;20233;-60
2022/10/17 00:24:53;;;;;;;5.17;2.20;;;;;;;12.94;100.00;97224.38;5096313;28;20242;-60
2022/10/17 00:27:20;;;;;;;3.10;1.70;;;;;;;12.91;100.00;97228.16;5085393;28;20308;-60
2022/10/17 00:29:48;;;;;;;3.13;1.73;;;;;;;12.86;100.00;97224.25;5085935;28;20202;-61
2022/10/17 00:32:15;;;;;;;3.67;1.60;;;;;;;12.86;100.00;97230.41;5099805;28;20234;-64
2022/10/17 00:34:45;;;;;;;6.00;2.37;;;;;;;12.82;100.00;97226.34;5105492;28;20283;-60
2022/10/17 00:37:12;;;;;;;6.63;1.80;;;;;;;12.84;100.00;97231.53;5091929;28;20226;-61
2022/10/17 00:39:40;;;;;;;4.67;1.97;;;;;;;12.78;100.00;97232.94;5082976;28;20245;-60
2022/10/17 00:42:10;;;;;;;4.93;2.03;;;;;;;12.82;100.00;97236.16;5081477;28;20606;-60
2022/10/17 00:45:02;;;;;;;3.93;1.97;;;;;;;12.86;100.00;97229.56;5082605;28;20233;-60
2022/10/17 00:47:29;;;;;;;5.43;2.20;;;;;;;12.83;100.00;97230.69;5081762;28;20296;-60
2022/10/17 00:49:57;;;;;;;3.67;1.80;;;;;;;12.83;100.00;97228.03;5081736;28;20243;-60
2022/10/17 00:52:26;;;;;;;3.80;2.33;;;;;;;12.81;100.00;97231.81;5081692;28;20593;-61
2022/10/17 00:54:55;;;;;;;3.27;1.70;;;;;;;12.79;100.00;97234.59;5081590;28;20229;-59
2022/10/17 00:57:22;;;;;;;3.70;2.30;;;;;;;12.78;100.00;97226.78;5081570;28;20212;-59
2022/10/17 00:59:53;;;;;;;4.83;1.80;;;;;;;12.77;100.00;97225.97;5081773;28;20219;-60
2022/10/17 01:02:24;;;;;;;2.77;1.90;;;;;;;12.72;100.00;97217.56;5081548;28;20668;-60
2022/10/17 01:04:53;;;;;;;9.37;2.40;;;;;;;12.69;100.00;97224.97;5090159;28;20194;-59
2022/10/17 01:07:22;;;;;;;7.17;2.77;;;;;;;12.68;100.00;97221.47;5091579;28;20984;-60
2022/10/17 01:09:52;;;;;;;8.00;2.50;;;;;;;12.71;100.00;97223.88;5091697;28;20266;-60
2022/10/17 01:12:22;;;;;;;3.03;2.50;;;;;;;12.68;100.00;97221.47;5081621;28;20644;-60
2022/10/17 01:15:02;;;;;;;7.43;2.47;;;;;;;12.64;100.00;97220.13;5081747;28;20226;-61
2022/10/17 01:17:35;;;;;;;4.47;2.67;;;;;;;12.58;100.00;97225.97;5081234;28;20214;-61
2022/10/17 01:20:37;;;;;;;2.60;2.40;;;;;;;12.58;100.00;97230.44;5081428;28;20273;-59
2022/10/17 01:23:23;;;;;;;6.13;2.33;;;;;;;12.58;100.00;97225.97;5069168;28;20229;-59
2022/10/17 01:25:55;;;;;;;3.00;2.60;;;;;;;12.57;100.00;97229.63;5081199;28;20673;-61
2022/10/17 01:28:36;;;;;;;3.90;2.33;;;;;;;12.53;100.00;97227.38;5081013;28;20249;-60
2022/10/17 01:31:12;;;;;;;4.50;2.20;;;;;;;12.58;100.00;97219.81;5081220;28;20225;-59
2022/10/17 01:33:57;;;;;;;8.10;2.53;;;;;;;12.59;100.00;97226.81;5081482;28;20236;-60
2022/10/17 01:36:32;;;;;;;8.43;2.43;;;;;;;12.53;100.00;97228.22;5079133;28;20289;-60
2022/10/17 01:39:03;;;;;;;6.47;2.33;;;;;;;12.60;100.00;97221.38;5081138;28;20288;-60
2022/10/17 01:41:41;;;;;;;10.27;2.53;;;;;;;12.57;100.00;97223.47;5081764;28;20259;-59
2022/10/17 01:44:11;;;;;;;6.53;2.40;;;;;;;12.59;100.00;97216.19;5080974;28;20570;-60
2022/10/17 01:46:40;;;;;;;4.80;2.50;;;;;;;12.55;100.00;97226.25;5081478;28;20296;-61
2022/10/17 01:49:09;;;;;;;2.27;2.07;;;;;;;12.56;100.00;97216.47;5080637;28;20320;-60
2022/10/17 01:51:39;;;;;;;4.17;2.23;;;;;;;12.51;100.00;97218.72;5081319;28;20293;-61
2022/10/17 01:54:11;;;;;;;2.87;1.83;;;;;;;12.59;100.00;97210.91;5083611;28;20297;-60
2022/10/17 01:56:40;;;;;;;4.10;2.77;;;;;;;12.54;100.00;97215.81;5085382;28;20212;-59
2022/10/17 01:59:11;;;;;;;3.17;2.20;;;;;;;12.49;100.00;97216.22;5085190;28;20206;-60
2022/10/17 02:01:41;;;;;;;4.63;2.00;;;;;;;12.46;100.00;97217.34;5083958;28;20194;-59
2022/10/17 02:04:09;;;;;;;3.17;2.23;;;;;;;12.50;100.00;97223.22;5084887;28;20221;-61
2022/10/17 02:06:36;;;;;;;2.90;2.50;;;;;;;12.47;100.00;97215.50;5085942;28;20626;-60
2022/10/17 02:09:16;;;;;;;4.20;2.33;;;;;;;12.42;100.00;97217.75;5067858;28;20284;-60
2022/10/17 02:11:45;;;;;;;2.90;2.60;;;;;;;12.40;100.00;97227.66;5085550;28;20209;-60
2022/10/17 02:14:21;;;;;;;4.40;2.50;;;;;;;12.40;100.00;97223.19;5084916;28;20249;-60
2022/10/17 02:16:55;;;;;;;3.83;2.70;;;;;;;12.37;100.00;97228.78;5085204;28;20190;-60
2022/10/17 02:19:35;;;;;;;4.87;2.37;;;;;;;12.36;100.00;97221.78;5084669;28;20549;-60
2022/10/17 02:22:09;;;;;;;4.00;2.53;;;;;;;12.35;100.00;97220.13;5085809;28;20516;-60
2022/10/17 02:24:46;;;;;;;5.70;2.73;;;;;;;12.24;100.00;97216.78;5084815;28;20232;-60
2022/10/17 02:27:16;;;;;;;7.73;2.70;;;;;;;12.22;100.00;97216.09;5084268;28;20245;-60
2022/10/17 02:29:50;;;;;;;3.40;2.50;;;;;;;12.17;100.00;97211.19;5084162;28;20229;-60
2022/10/17 02:32:23;;;;;;;2.40;2.30;;;;;;;12.17;100.00;97216.50;5084226;28;20285;-61
2022/10/17 02:34:51;;;;;;;7.67;3.53;;;;;;;12.09;100.00;97216.34;5106959;28;20213;-61
2022/10/17 02:37:21;;;;;;;5.83;2.70;;;;;;;12.09;100.00;97226.09;5108335;28;20214;-60
2022/10/17 02:39:48;;;;;;;5.20;2.50;;;;;;;12.09;100.00;97226.94;5092888;28;20666;-60
2022/10/17 02:42:15;;;;;;;8.20;2.90;;;;;;;12.11;100.00;97222.38;5083843;28;20199;-60
2022/10/17 02:44:43;;;;;;;5.47;2.63;;;;;;;12.12;100.00;97213.41;5083982;28;20294;-59
2022/10/17 02:47:17;;;;;;;4.60;2.90;;;;;;;12.09;100.00;97219.00;5084003;28;20301;-60
2022/10/17 02:49:50;;;;;;;3.57;2.90;;;;;;;12.13;100.00;97220.41;5082266;28;20313;-60
2022/10/17 02:52:22;;;;;;;3.80;2.73;;;;;;;12.14;100.00;97227.38;5082794;28;20568;-60
2022/10/17 02:54:53;;;;;;;3.20;2.60;;;;;;;12.18;100.00;97220.00;5083003;28;20539;-59
2022/10/17 02:57:24;;;;;;;5.17;2.40;;;;;;;12.16;100.00;97222.78;5082929;28;20294;-60
2022/10/17 02:59:51;;;;;;;7.47;2.90;;;;;;;12.10;100.00;97227.78;5082587;28;20289;-60
2022/10/17 03:02:18;;;;;;;3.23;2.40;;;;;;;12.07;100.00;97225.44;5082592;28;20860;-61
2022/10/17 03:04:46;;;;;;;7.37;2.57;;;;;;;12.05;100.00;97222.06;5081633;28;20584;-60
2022/10/17 03:07:13;;;;;;;3.17;2.23;;;;;;;12.04;100.00;97231.00;5082805;28;20217;-59
2022/10/17 03:09:40;;;;;;;4.23;2.60;;;;;;;12.03;100.00;97230.16;5082251;28;20638;-59
2022/10/17 03:12:06;;;;;;;4.23;2.70;;;;;;;12.00;100.00;97224.31;5082363;28;20238;-60
2022/10/17 03:14:33;;;;;;;3.80;2.40;;;;;;;11.96;100.00;97229.88;5082466;28;20289;-60
2022/10/17 03:17:00;;;;;;;3.17;2.47;;;;;;;11.90;100.00;97230.41;5082352;28;20270;-60
2022/10/17 03:19:26;;;;;;;2.73;2.53;;;;;;;11.90;100.00;97242.84;5081861;28;20202;-60
2022/10/17 03:21:55;;;;;;;3.63;2.57;;;;;;;11.90;100.00;97235.69;5083318;28;20281;-60
2022/10/17 03:24:23;;;;;;;2.70;2.50;;;;;;;11.88;100.00;97248.28;5082386;28;20645;-60
2022/10/17 03:26:50;;;;;;;3.67;2.63;;;;;;;11.90;100.00;97251.59;5082817;28;20252;-60
2022/10/17 03:29:17;;;;;;;4.53;2.47;;;;;;;11.83;100.00;97254.97;5083141;28;20285;-59
2022/10/17 03:31:43;;;;;;;7.40;3.10;;;;;;;11.77;100.00;97261.63;5082698;28;20285;-60
2022/10/17 03:34:10;;;;;;;2.80;2.60;;;;;;;11.80;100.00;97261.34;5083608;28;20711;-60
2022/10/17 03:36:37;;;;;;;2.90;2.57;;;;;;;11.75;100.00;97260.94;5083399;28;20655;-60
2022/10/17 03:39:06;;;;;;;7.13;2.60;;;;;;;11.72;100.00;97263.84;5083144;28;20583;-59
2022/10/17 03:41:34;;;;;;;4.13;2.53;;;;;;;11.69;100.00;97261.41;5082487;28;20225;-60
2022/10/17 03:44:02;;;;;;;5.90;2.80;;;;;;;11.63;100.00;97264.63;5082458;28;20672;-60
2022/10/17 03:46:29;;;;;;;6.83;2.80;;;;;;;11.62;100.00;97267.41;5082786;28;20229;-60
2022/10/17 03:48:55;;;;;;;3.83;2.37;;;;;;;11.57;100.00;97274.91;5076414;28;141824;-60
2022/10/17 03:51:22;;;;;;;5.10;2.77;;;;;;;11.53;100.00;97276.16;5082920;28;20289;-60
2022/10/17 03:53:49;;;;;;;3.70;2.30;;;;;;;11.54;100.00;97276.03;5083216;28;20273;-60
2022/10/17 03:56:19;;;;;;;3.83;2.40;;;;;;;11.48;100.00;97277.38;5083066;28;20233;-60
2022/10/17 03:58:45;;;;;;;6.97;2.83;;;;;;;11.48;100.00;97277.38;5083578;28;20325;-59
2022/10/17 04:01:13;;;;;;;4.33;2.70;;;;;;;11.46;100.00;97273.19;5084689;28;20225;-60
2022/10/17 04:03:41;;;;;;;3.60;2.30;;;;;;;11.46;100.00;97278.50;5090573;28;20289;-61
2022/10/17 04:06:08;;;;;;;2.67;2.40;;;;;;;11.40;100.00;97290.47;5077520;28;20202;-60
2022/10/17 04:08:34;;;;;;;7.00;2.60;;;;;;;11.41;100.00;97296.59;5095687;28;20264;-60
2022/10/17 04:11:02;;;;;;;5.20;2.67;;;;;;;11.46;100.00;97284.63;5095765;28;20293;-62
2022/10/17 04:13:32;;;;;;;4.07;2.40;;;;;;;11.45;100.00;97293.53;5098223;28;20226;-61
2022/10/17 04:16:00;;;;;;;6.60;2.70;;;;;;;11.37;100.00;97297.84;5097429;28;20223;-60
2022/10/17 04:18:30;;;;;;;4.23;2.53;;;;;;;11.39;100.00;97303.84;5097528;28;20229;-60
2022/10/17 04:20:56;;;;;;;9.57;3.03;;;;;;;11.38;100.00;97308.28;5097620;28;20202;-59
2022/10/17 04:23:25;;;;;;;5.30;3.03;;;;;;;11.44;100.00;97304.28;5105727;28;20221;-60
2022/10/17 04:25:55;;;;;;;5.87;4.30;;;;;;;11.44;100.00;97305.09;5105622;28;20210;-60
2022/10/17 04:28:24;;;;;;;6.23;2.87;;;;;;;11.42;100.00;97308.84;5085388;28;20289;-60
2022/10/17 04:30:58;;;;;;;3.83;2.90;;;;;;;11.42;100.00;97311.50;5102661;28;20234;-63
2022/10/17 04:33:25;;;;;;;6.00;2.87;;;;;;;11.40;100.00;97310.81;5090275;28;20229;-61
2022/10/17 04:35:59;;;;;;;6.03;3.00;;;;;;;11.40;100.00;97305.53;5081791;28;20249;-60
2022/10/17 04:38:29;;;;;;;4.27;2.77;;;;;;;11.40;100.00;97302.88;5082275;28;21140;-60
2022/10/17 04:40:57;;;;;;;3.20;2.87;;;;;;;11.42;100.00;97308.84;5082317;28;20208;-60
2022/10/17 04:43:25;;;;;;;7.23;2.70;;;;;;;11.38;100.00;97307.44;5081994;28;20198;-59
2022/10/17 04:45:51;;;;;;;6.07;2.80;;;;;;;11.36;100.00;97298.81;5081863;28;20205;-60
2022/10/17 04:48:21;;;;;;;4.20;2.93;;;;;;;11.36;100.00;97314.69;5083097;28;20249;-60
2022/10/17 04:50:54;;;;;;;4.33;2.63;;;;;;;11.35;100.00;97319.16;5085972;28;20296;-60
2022/10/17 04:53:20;;;;;;;9.47;3.10;;;;;;;11.33;100.00;97312.31;5086730;28;20293;-60
2022/10/17 04:55:47;;;;;;;4.10;2.60;;;;;;;11.31;100.00;97317.72;5071353;28;20289;-60
2022/10/17 04:58:14;;;;;;;3.93;2.60;;;;;;;11.30;100.00;97312.59;5095417;28;20248;-60
2022/10/17 05:00:41;;;;;;;5.60;2.70;;;;;;;11.32;100.00;97311.47;5089836;28;20285;-61
2022/10/17 05:03:08;;;;;;;6.90;3.23;;;;;;;11.30;100.00;97320.53;5096127;28;20219;-60
2022/10/17 05:05:42;;;;;;;4.87;3.00;;;;;;;11.33;100.00;97317.59;5091681;28;20665;-60
2022/10/17 05:08:10;;;;;;;3.20;2.90;;;;;;;11.38;100.00;97324.19;5080919;28;20713;-60
2022/10/17 05:10:37;;;;;;;3.37;2.80;;;;;;;11.44;100.00;97328.13;5081569;28;20537;-60
2022/10/17 05:13:04;;;;;;;4.97;2.50;;;;;;;11.43;100.00;97326.44;5080726;28;20212;-60
2022/10/17 05:15:31;;;;;;;4.67;3.20;;;;;;;11.43;100.00;97326.44;5081584;28;20277;-59
2022/10/17 05:17:58;;;;;;;2.97;2.70;;;;;;;11.42;100.00;97324.75;5081564;28;20284;-60
2022/10/17 05:20:26;;;;;;;3.37;2.90;;;;;;;11.48;100.00;97324.22;5081418;28;20208;-59
2022/10/17 05:22:54;;;;;;;3.57;2.60;;;;;;;11.40;100.00;97327.56;5081141;28;20289;-60
2022/10/17 05:25:20;;;;;;;6.03;2.57;;;;;;;11.36;100.00;97330.59;5081255;28;20209;-60
2022/10/17 05:27:48;;;;;;;5.10;2.90;;;;;;;11.36;100.00;97325.28;5081405;28;20317;-59
2022/10/17 05:30:14;;;;;;;3.70;3.00;;;;;;;11.43;100.00;97329.09;5081336;28;20281;-61
2022/10/17 05:32:41;;;;;;;10.67;3.53;;;;;;;11.40;100.00;97329.34;5081204;28;20293;-60
2022/10/17 05:35:07;;;;;;;6.03;3.23;;;;;;;11.34;100.00;97327.22;5081484;28;20240;-60
2022/10/17 05:37:35;;;;;;;6.33;2.73;;;;;;;11.31;100.00;97335.41;5082095;28;20222;-60
2022/10/17 05:40:04;;;;;;;4.37;2.77;;;;;;;11.33;100.00;97334.34;5082537;28;20198;-60
2022/10/17 05:42:31;;;;;;;2.93;2.73;;;;;;;11.31;100.00;97346.00;5080380;28;20202;-61
2022/10/17 05:44:58;;;;;;;3.13;2.93;;;;;;;11.32;100.00;97343.25;5080915;28;20299;-61
2022/10/17 05:47:24;;;;;;;3.43;2.60;;;;;;;11.31;100.00;97349.50;5080836;28;20233;-60
2022/10/17 05:49:51;;;;;;;5.60;2.67;;;;;;;11.32;100.00;97348.53;5080694;28;20320;-61
2022/10/17 05:52:18;;;;;;;8.20;5.30;;;;;;;11.32;100.00;97350.34;5080101;28;20290;-61
2022/10/17 05:54:44;;;;;;;3.67;3.33;;;;;;;11.38;100.00;97357.75;5080200;28;20600;-60
2022/10/17 05:57:12;;;;;;;5.40;3.00;;;;;;;11.36;100.00;97357.06;5080869;28;20213;-60
2022/10/17 05:59:39;;;;;;;4.10;2.70;;;;;;;11.36;100.00;97357.91;5081351;28;20206;-61
2022/10/17 06:02:06;;;;;;;3.03;2.83;;;;;;;11.37;100.00;97359.56;5080964;28;20385;-61
2022/10/17 06:04:33;;;;;;;3.77;3.00;;;;;;;11.38;100.00;97355.09;5081236;28;20296;-59
2022/10/17 06:06:59;;;;;;;5.23;3.20;;;;;;;11.39;100.00;97362.09;5080225;28;20296;-60
2022/10/17 06:09:26;;;;;;;7.00;3.00;;;;;;;11.44;100.00;97357.25;5080353;28;20221;-61
2022/10/17 06:11:53;;;;;;;5.13;3.10;;;;;;;11.43;100.00;97368.81;5080481;28;20714;-60
2022/10/17 06:14:22;;;;;;;4.13;2.97;;;;;;;11.47;100.00;97378.19;5080801;28;20312;-61
2022/10/17 06:16:49;;;;;;;11.40;3.83;;;;;;;11.59;100.00;97382.41;5080768;28;20313;-60
2022/10/17 06:19:16;;;;;;;5.53;3.70;;;;;;;11.57;100.00;97387.03;5080801;28;20285;-60
2022/10/17 06:21:42;;;;;;;9.53;3.77;;;;;;;11.58;100.00;97386.06;5081345;28;20281;-61
2022/10/17 06:24:09;;;;;;;4.73;3.60;;;;;;;11.66;100.00;97388.03;5091221;28;20237;-61
2022/10/17 06:26:35;;;;;;;7.77;3.73;;;;;;;11.72;100.00;97396.34;5090029;28;20202;-62
2022/10/17 06:29:02;;;;;;;5.20;3.90;;;;;;;11.76;100.00;97397.72;5087219;28;20257;-60
2022/10/17 06:31:30;;;;;;;10.50;3.93;;;;;;;11.80;100.00;97403.59;5080230;28;20190;-60
2022/10/17 06:33:57;;;;;;;8.23;4.00;;;;;;;11.81;100.00;97406.13;5080782;28;20249;-60
2022/10/17 06:36:24;;;;;;;5.53;4.07;;;;;;;11.82;100.00;97402.53;5080933;28;20285;-60
2022/10/17 06:38:50;;;;;;;6.93;4.83;;;;;;;11.88;100.00;97398.50;5080214;28;20324;-60
2022/10/17 06:41:18;;;;;;;7.00;5.13;;;;;;;11.90;100.00;97405.34;5083752;28;20717;-60
2022/10/17 06:43:46;;;;;;;9.07;4.90;;;;;;;11.92;100.00;97410.50;5084415;28;20205;-60
2022/10/17 06:46:14;;;;;;;6.97;4.70;;;;;;;12.00;100.00;97415.16;5084157;28;20216;-61
2022/10/17 06:48:42;;;;;;;8.30;5.00;;;;;;;12.01;100.00;97417.66;5084007;28;20234;-61
2022/10/17 06:51:10;;;;;;;9.33;4.97;;;;;;;12.04;100.00;97419.22;5083537;28;20640;-61
2022/10/17 06:53:38;;;;;;;8.37;5.27;;;;;;;12.14;100.00;97428.91;5084180;28;20186;-60
2022/10/17 06:56:08;;;;;;;5.20;4.53;;;;;;;12.20;100.00;97432.81;5083216;28;20289;-61
2022/10/17 06:58:37;;;;;;;8.23;4.87;;;;;;;12.26;100.00;97437.56;5084222;28;20570;-60
2022/10/17 07:01:05;;;;;;;8.40;5.07;;;;;;;12.29;100.00;97442.63;5083780;28;20634;-61
2022/10/17 07:03:32;;;;;;;15.23;5.17;;;;;;;12.36;100.00;97451.72;5084118;28;20297;-60
2022/10/17 07:06:00;;;;;;;21.93;6.63;;;;;;;12.44;100.00;97450.06;5083482;28;20209;-60
2022/10/17 07:08:27;;;;;;;14.17;6.47;;;;;;;12.50;100.00;97451.38;5083743;28;20292;-60
2022/10/17 07:10:54;;;;;;;8.07;5.80;;;;;;;12.56;100.00;97450.81;5083658;28;20719;-61
2022/10/17 07:13:21;;;;;;;7.97;5.87;;;;;;;12.63;100.00;97462.56;5083458;28;20285;-61
2022/10/17 07:15:48;;;;;;;8.70;5.73;;;;;;;12.67;100.00;97460.47;5083718;28;20294;-60
2022/10/17 07:18:14;;;;;;;9.80;5.70;;;;;;;12.73;100.00;97457.28;5083348;28;20248;-60
2022/10/17 07:20:41;;;;;;;9.03;5.30;;;;;;;12.77;100.00;97462.19;5083401;28;20816;-60
2022/10/17 07:23:09;;;;;;;9.30;5.40;;;;;;;12.85;100.00;97458.84;5083539;28;20305;-60
2022/10/17 07:25:37;;;;;;;9.63;5.40;;;;;;;12.90;100.00;97465.41;5083085;28;20217;-61
2022/10/17 07:28:04;;;;;;;7.40;5.47;;;;;;;12.96;100.00;97470.19;5082842;28;20226;-61
2022/10/17 07:30:30;;;;;;;6.20;5.60;;;;;;;13.02;100.00;97473.25;5083426;28;20289;-60
2022/10/17 07:32:57;;;;;;;9.60;5.97;;;;;;;13.06;100.00;97475.50;5083441;28;20194;-60
2022/10/17 07:35:24;;;;;;;6.10;5.50;;;;;;;13.11;100.00;97473.28;5083104;28;20305;-62
2022/10/17 07:37:50;;;;;;;7.00;5.40;;;;;;;13.20;100.00;97477.78;5083354;28;21154;-61
2022/10/17 07:40:20;;;;;;;6.67;5.37;;;;;;;13.26;100.00;97482.53;5082660;28;20717;-61
2022/10/17 07:42:46;;;;;;;9.30;5.60;;;;;;;13.34;100.00;97479.19;5083106;28;20206;-62
2022/10/17 07:45:14;;;;;;;6.60;5.47;;;;;;;13.40;100.00;97486.59;5084141;28;20702;-61
2022/10/17 07:47:41;;;;;;;5.53;4.90;;;;;;;13.45;100.00;97487.00;5095585;28;20207;-60
2022/10/17 07:50:08;;;;;;;6.80;5.10;;;;;;;13.46;100.00;97481.53;5086294;28;20269;-61
2022/10/17 07:52:35;;;;;;;7.83;5.00;;;;;;;13.52;100.00;97493.44;5082159;28;20200;-61
2022/10/17 07:55:01;;;;;;;6.80;5.23;;;;;;;13.55;100.00;97493.16;5087607;28;20201;-59
2022/10/17 07:57:30;;;;;;;5.90;5.33;;;;;;;13.57;100.00;97488.53;5087220;28;20270;-61
2022/10/17 07:59:57;;;;;;;8.13;5.27;;;;;;;13.61;100.00;97491.75;5084058;28;20674;-61
2022/10/17 08:02:25;;;;;;;6.73;5.67;;;;;;;13.65;100.00;97499.31;5082987;28;20263;-60
2022/10/17 08:04:51;;;;;;;5.40;5.00;;;;;;;13.71;100.00;97501.38;5082884;28;20230;-59
2022/10/17 08:07:18;;;;;;;5.10;4.70;;;;;;;13.80;100.00;97500.56;5082166;28;20285;-60
2022/10/17 08:09:46;;;;;;;6.03;5.20;;;;;;;13.90;100.00;97503.19;5082840;28;20217;-61
2022/10/17 08:12:14;;;;;;;6.87;5.30;;;;;;;13.95;100.00;97499.13;5082527;28;20202;-61
2022/10/17 08:14:42;;;;;;;11.07;5.47;;;;;;;14.03;100.00;97502.91;5082639;28;20198;-59
2022/10/17 08:17:09;;;;;;;6.97;5.10;;;;;;;14.07;100.00;97504.28;5082455;28;20220;-60
2022/10/17 08:19:38;;;;;;;6.40;4.90;;;;;;;14.14;100.00;97503.56;5082954;28;20226;-60
2022/10/17 08:22:04;;;;;;;6.23;4.93;;;;;;;14.20;100.00;97500.34;5082609;28;20212;-59
2022/10/17 08:24:31;;;;;;;5.83;4.50;;;;;;;14.28;100.00;97503.09;5082907;28;20705;-61
2022/10/17 08:26:59;;;;;;;6.57;4.83;;;;;;;14.37;100.00;97506.75;5089467;28;20240;-60
2022/10/17 08:29:26;;;;;;;6.50;4.80;;;;;;;14.42;100.00;97507.97;5083144;28;20332;-60
2022/10/17 08:31:55;;;;;;;5.90;5.30;;;;;;;14.48;100.00;97508.38;5083396;28;20190;-59
2022/10/17 08:34:22;;;;;;;5.28;4.68;;;;;;;14.56;100.00;97509.31;5082583;28;20210;-61
2022/10/17 08:36:49;;;;;;;7.33;4.80;;;;;;;14.63;100.00;97502.41;5082914;28;20222;-60
2022/10/17 08:39:16;;;;;;;4.47;4.18;;;;;;;14.75;100.00;97505.75;5083254;28;20187;-60
2022/10/17 08:41:52;;;;;;;5.38;4.85;;;;;;;14.81;100.00;97505.97;5082230;28;20230;-60
2022/10/17 08:44:29;;;;;;;7.50;5.75;;;;;;;14.90;100.00;97510.44;5082250;28;20285;-60
2022/10/17 08:47:00;;;;;;;7.15;5.78;;;;;;;15.01;100.00;97509.38;5081318;28;21065;-59
2022/10/17 08:49:34;;;;;;;6.72;5.07;;;;;;;15.13;100.00;97507.34;5081867;28;20230;-60
2022/10/17 08:52:04;;;;;;;5.85;5.35;;;;;;;15.28;100.00;97508.50;5082247;28;20222;-60
2022/10/17 08:54:40;;;;;;;5.80;5.28;;;;;;;15.38;100.00;97504.78;5081759;28;20605;-61
2022/10/17 08:57:11;;;;;;;6.10;5.07;;;;;;;15.58;100.00;97508.19;5080964;28;20223;-60
2022/10/17 08:59:38;;;;;;;5.28;4.60;;;;;;;15.74;100.00;97510.13;5081591;28;20199;-60
2022/10/17 09:02:21;;;;;;;5.63;5.13;;;;;;;15.86;100.00;97509.75;5081803;28;20230;-60
2022/10/17 09:05:00;;;;;;;5.57;4.82;;;;;;;15.98;100.00;97518.31;5082122;28;20286;-61
2022/10/17 09:07:31;;;;;;;5.55;5.05;;;;;;;16.11;100.00;97509.94;5081236;28;20664;-59
2022/10/17 09:10:05;;;;;;;7.43;4.55;;;;;;;16.30;100.00;97515.88;5080770;28;20618;-60
2022/10/17 09:12:39;;;;;;;5.20;4.70;;;;;;;16.50;100.00;97521.84;5081242;28;20289;-61
2022/10/17 09:15:22;;;;;;;5.88;5.18;;;;;;;16.65;100.00;97516.81;5081107;28;20247;-60
2022/10/17 09:17:53;;;;;;;6.75;5.32;;;;;;;16.76;100.00;97514.66;5081045;28;20293;-61
2022/10/17 09:20:22;;;;;;;5.40;4.88;;;;;;;16.96;100.00;97514.41;5081344;28;20284;-60
2022/10/17 09:22:52;;;;;;;5.07;4.68;;;;;;;17.17;100.00;97522.84;5081163;28;20198;-61
2022/10/17 09:25:20;;;;;;;6.88;4.43;;;;;;;17.30;100.00;97515.19;5081397;28;20265;-60
2022/10/17 09:27:49;;;;;;;6.22;4.63;;;;;;;17.48;100.00;97521.25;5081106;28;20201;-60
2022/10/17 09:30:23;;;;;;;8.15;4.55;;;;;;;17.57;100.00;97514.91;5080574;28;20223;-60
2022/10/17 09:32:51;;;;;;;7.63;5.25;;;;;;;17.71;100.00;97516.94;5080878;28;20185;-60
2022/10/17 09:35:19;;;;;;;4.43;4.03;;;;;;;17.97;100.00;97516.78;5080706;28;20213;-60
2022/10/17 09:37:48;;;;;;;7.10;5.18;;;;;;;18.23;98.32;97514.78;5081311;28;20286;-60
2022/10/17 09:40:20;;;;;;;7.93;4.47;;;;;;;18.45;97.71;97515.06;5081117;28;20527;-60
2022/10/17 09:42:47;;;;;;;4.82;4.30;;;;;;;18.60;96.29;97513.41;5080868;28;20293;-60
2022/10/17 09:45:18;;;;;;;4.97;3.97;;;;;;;18.71;94.61;97515.69;5080923;28;20259;-60
2022/10/17 09:47:47;;;;;;;5.68;4.00;;;;;;;18.82;93.67;97512.63;5080394;28;20278;-60
2022/10/17 09:50:20;;;;;;;5.03;4.55;;;;;;;19.01;92.42;97522.13;5080845;28;20295;-61
2022/10/17 09:52:49;;;;;;;6.97;4.68;;;;;;;19.04;90.52;97521.75;5081058;28;20203;-61
2022/10/17 09:55:19;;;;;;;6.45;3.92;;;;;;;19.10;90.14;97515.69;5080690;28;20201;-60
2022/10/17 09:57:54;;;;;;;5.00;4.50;;;;;;;19.20;89.81;97522.50;5080921;28;20198;-60
2022/10/17 10:00:23;;;;;;;7.05;4.25;;;;;;;19.39;89.51;97532.81;5080753;28;20233;-62
2022/10/17 10:02:49;;;;;;;7.18;4.43;;;;;;;19.48;87.33;97525.59;5080666;28;20741;-59
2022/10/17 10:05:18;;;;;;;6.25;3.80;;;;;;;19.61;86.25;97525.84;5080901;28;20230;-60
2022/10/17 10:08:01;;;;;;;8.05;4.20;;;;;;;19.65;86.31;97527.16;5080854;28;20540;-60
2022/10/17 10:10:30;;;;;;;8.98;4.38;;;;;;;19.73;87.24;97524.38;5080637;28;20335;-61
2022/10/17 10:13:15;;;;;;;4.05;3.75;;;;;;;19.81;80.18;97527.03;5063492;28;20272;-60
2022/10/17 10:15:42;;;;;;;7.25;3.90;;;;;;;20.05;80.77;97527.88;5084046;28;20714;-59
2022/10/17 10:18:28;;;;;;;5.07;3.50;;;;;;;20.20;79.00;97526.03;5085168;28;20238;-60
2022/10/17 10:21:07;;;;;;;3.22;3.00;;;;;;;20.42;78.88;97525.19;5085903;28;20289;-60
2022/10/17 10:23:34;;;;;;;6.82;3.65;;;;;;;20.50;75.28;97518.91;5085638;28;20280;-60
2022/10/17 10:26:03;;;;;;;5.80;3.70;;;;;;;20.67;75.32;97526.59;5085997;28;20208;-60
2022/10/17 10:28:31;;;;;;;4.20;3.50;;;;;;;20.84;76.48;97525.41;5087001;28;20190;-60
2022/10/17 10:31:03;;;;;;;3.30;3.00;;;;;;;21.01;74.08;97520.66;5087950;28;20289;-61
2022/10/17 10:33:32;;;;;;;3.30;2.78;;;;;;;21.03;69.63;97529.38;5087076;28;20205;-61
2022/10/17 10:36:02;;;;;;;3.47;2.60;;;;;;;21.24;70.79;97525.97;5086670;28;20226;-59
2022/10/17 10:38:32;;;;;;;2.78;2.55;;;;;;;21.33;68.00;97525.66;5086411;28;20691;-60
2022/10/17 10:41:03;;;;;;;3.40;2.75;;;;;;;21.34;67.61;97531.88;5094612;28;20194;-59
2022/10/17 10:43:37;;;;;;;4.38;2.30;;;;;;;21.45;66.80;97528.69;5092993;28;20229;-60
2022/10/17 10:46:04;;;;;;;3.20;2.30;;;;;;;21.56;64.60;97524.66;5094938;28;20187;-60
2022/10/17 10:48:35;;;;;;;2.22;2.08;;;;;;;21.68;65.25;97529.34;5101825;28;20225;-60
2022/10/17 10:51:05;;;;;;;2.70;2.50;;;;;;;21.89;64.98;97519.63;5101150;28;20253;-60
2022/10/17 10:53:43;;;;;;;4.47;2.30;;;;;;;22.05;66.00;97519.38;5103459;28;20214;-63
2022/10/17 10:56:14;;;;;;;4.53;2.60;;;;;;;22.17;65.48;97517.84;5093362;28;20590;-60
2022/10/17 10:58:52;;;;;;;3.03;2.70;;;;;;;22.36;65.37;97516.31;5085307;28;20194;-60
2022/10/17 11:01:24;;;;;;;4.68;3.28;;;;;;;22.28;63.61;97501.16;5084728;28;20205;-60
2022/10/17 11:04:00;;;;;;;3.65;2.88;;;;;;;22.53;64.44;97502.34;5083855;28;20288;-60
2022/10/17 11:06:29;;;;;;;3.13;2.85;;;;;;;22.67;64.76;97504.13;5084687;28;20225;-60
2022/10/17 11:09:06;;;;;;;5.13;2.50;;;;;;;22.80;64.73;97509.63;5083648;28;20212;-60
2022/10/17 11:11:37;;;;;;;5.85;2.70;;;;;;;22.95;64.51;97505.97;5083627;28;20223;-61
2022/10/17 11:14:10;;;;;;;3.28;2.90;;;;;;;23.02;65.10;97501.44;5083705;28;20194;-61
2022/10/17 11:16:39;;;;;;;2.80;2.60;;;;;;;23.07;64.62;97498.97;5083652;28;20272;-60
2022/10/17 11:19:12;;;;;;;4.32;3.10;;;;;;;23.15;65.57;97499.63;5083749;28;20234;-60
2022/10/17 11:21:44;;;;;;;6.47;5.85;;;;;;;23.10;63.21;97493.16;5084407;28;20209;-61
2022/10/17 11:24:17;;;;;;;3.70;3.17;;;;;;;23.16;63.32;97495.06;5084287;28;20282;-60
2022/10/17 11:26:50;;;;;;;3.08;2.78;;;;;;;23.18;65.30;97488.44;5084413;28;20638;-60
2022/10/17 11:29:17;;;;;;;5.70;3.22;;;;;;;23.18;65.00;97484.91;5086176;28;20298;-61
2022/10/17 11:31:48;;;;;;;5.68;2.90;;;;;;;23.20;65.00;97489.06;5086760;28;20225;-61
2022/10/17 11:34:19;;;;;;;3.28;2.90;;;;;;;23.14;63.01;97483.63;5089402;28;20254;-60
2022/10/17 11:36:48;;;;;;;4.78;2.83;;;;;;;23.08;63.27;97493.38;5085740;28;20219;-60